createdAt,value
2018-11-26T00:02:01.668Z,4.50
2018-11-26T00:04:29.965Z,4.60
2018-11-26T00:06:58.325Z,4.50
2018-11-26T00:09:26.610Z,4.60
2018-11-26T00:11:54.986Z,4.50
2018-11-26T00:14:23.306Z,4.50
2018-11-26T00:16:51.633Z,4.50
2018-11-26T00:19:19.905Z,4.50
2018-11-26T00:21:48.289Z,4.60
2018-11-26T00:27:09.617Z,4.60
2018-11-26T00:29:38.182Z,4.60
2018-11-26T00:32:06.534Z,4.60
2018-11-26T00:34:34.904Z,4.60
2018-11-26T00:37:03.375Z,4.60
2018-11-26T00:39:31.642Z,4.60
2018-11-26T00:42:00.393Z,4.60
2018-11-26T00:44:28.749Z,4.60
2018-11-26T00:46:57.006Z,4.60
2018-11-26T00:49:25.844Z,4.60
2018-11-26T00:51:54.265Z,4.60
2018-11-26T00:54:22.550Z,4.60
2018-11-26T00:56:50.857Z,4.60
2018-11-26T00:59:19.271Z,4.60
2018-11-26T01:01:47.511Z,4.60
2018-11-26T01:04:16.179Z,4.70
2018-11-26T01:06:44.451Z,4.60
2018-11-26T01:09:12.831Z,4.70
2018-11-26T01:11:41.118Z,4.70
2018-11-26T01:14:09.365Z,4.70
2018-11-26T01:16:37.638Z,4.60
2018-11-26T01:19:06.489Z,4.60
2018-11-26T01:21:34.818Z,4.60
2018-11-26T01:24:03.080Z,4.60
2018-11-26T01:26:31.330Z,4.60
2018-11-26T01:28:59.582Z,4.60
2018-11-26T01:31:27.974Z,4.50
2018-11-26T01:33:56.267Z,4.60
2018-11-26T01:36:24.556Z,4.50
2018-11-26T01:38:52.834Z,4.50
2018-11-26T01:41:21.106Z,4.50
2018-11-26T01:43:49.359Z,4.40
2018-11-26T01:46:17.634Z,4.40
2018-11-26T01:48:46.006Z,4.40
2018-11-26T01:51:14.361Z,4.40
2018-11-26T01:53:42.663Z,4.40
2018-11-26T01:56:10.922Z,4.40
2018-11-26T01:58:39.193Z,4.30
2018-11-26T02:01:07.450Z,4.30
2018-11-26T02:03:35.751Z,4.30
2018-11-26T02:06:04.045Z,4.30
2018-11-26T02:08:32.314Z,4.30
2018-11-26T02:11:00.741Z,4.30
2018-11-26T02:13:29.082Z,4.40
2018-11-26T02:15:57.447Z,4.40
2018-11-26T02:18:25.956Z,4.40
2018-11-26T02:20:54.280Z,4.50
2018-11-26T02:23:22.576Z,4.50
2018-11-26T02:25:50.887Z,4.50
2018-11-26T02:28:19.152Z,4.50
2018-11-26T02:30:47.410Z,4.50
2018-11-26T02:33:15.967Z,4.50
2018-11-26T02:35:44.227Z,4.50
2018-11-26T02:38:12.469Z,4.50
2018-11-26T02:40:40.773Z,4.50
2018-11-26T02:43:09.063Z,4.50
2018-11-26T02:45:37.347Z,4.50
2018-11-26T02:48:06.151Z,4.50
2018-11-26T02:50:34.392Z,4.50
2018-11-26T02:53:02.672Z,4.50
2018-11-26T02:55:30.950Z,4.40
2018-11-26T02:57:59.231Z,4.40
2018-11-26T03:00:27.585Z,4.40
2018-11-26T03:02:56.041Z,4.40
2018-11-26T03:05:27.214Z,4.40
2018-11-26T03:07:55.603Z,4.40
2018-11-26T03:10:24.075Z,4.40
2018-11-26T03:12:52.313Z,4.30
2018-11-26T03:15:20.756Z,4.30
2018-11-26T03:17:49.237Z,4.30
2018-11-26T03:20:17.506Z,4.30
2018-11-26T03:22:45.792Z,4.30
2018-11-26T03:25:14.052Z,4.30
2018-11-26T03:27:42.346Z,4.30
2018-11-26T03:30:13.714Z,4.30
2018-11-26T03:32:42.065Z,4.30
2018-11-26T03:35:10.551Z,4.30
2018-11-26T03:37:38.959Z,4.30
2018-11-26T03:40:09.154Z,4.30
2018-11-26T03:42:37.405Z,4.30
2018-11-26T03:45:08.397Z,4.30
2018-11-26T03:47:36.644Z,4.30
2018-11-26T03:50:05.250Z,4.30
2018-11-26T03:52:33.517Z,4.30
2018-11-26T03:55:01.812Z,4.30
2018-11-26T03:57:30.145Z,4.30
2018-11-26T03:59:58.484Z,4.30
2018-11-26T04:02:26.765Z,4.40
2018-11-26T04:04:55.060Z,4.40
2018-11-26T04:07:23.393Z,4.40
2018-11-26T04:09:51.627Z,4.40
2018-11-26T04:12:19.886Z,4.40
2018-11-26T04:14:48.229Z,4.40
2018-11-26T04:17:16.515Z,4.40
2018-11-26T04:19:44.796Z,4.40
2018-11-26T04:22:13.111Z,4.40
2018-11-26T04:24:41.419Z,4.40
2018-11-26T04:27:09.660Z,4.30
2018-11-26T04:29:37.935Z,4.30
2018-11-26T04:32:06.223Z,4.30
2018-11-26T04:34:34.613Z,4.30
2018-11-26T04:37:02.945Z,4.30
2018-11-26T04:39:31.218Z,4.40
2018-11-26T04:41:59.638Z,4.40
2018-11-26T04:44:27.933Z,4.30
2018-11-26T04:46:56.257Z,4.30
2018-11-26T04:49:24.615Z,4.40
2018-11-26T04:51:52.866Z,4.40
2018-11-26T04:54:21.113Z,4.30
2018-11-26T04:56:49.391Z,4.40
2018-11-26T04:59:17.653Z,4.30
2018-11-26T05:01:51.411Z,4.30
2018-11-26T05:04:19.672Z,4.30
2018-11-26T05:06:47.923Z,4.40
2018-11-26T05:09:16.236Z,4.30
2018-11-26T05:11:44.492Z,4.30
2018-11-26T05:14:12.785Z,4.30
2018-11-26T05:16:41.095Z,4.30
2018-11-26T05:19:09.687Z,4.30
2018-11-26T05:21:37.980Z,4.30
2018-11-26T05:24:06.291Z,4.30
2018-11-26T05:26:34.861Z,4.30
2018-11-26T05:29:03.171Z,4.40
2018-11-26T05:31:31.475Z,4.40
2018-11-26T05:33:59.742Z,4.40
2018-11-26T05:36:28.003Z,4.50
2018-11-26T05:38:56.274Z,4.50
2018-11-26T05:41:24.595Z,4.50
2018-11-26T05:43:52.845Z,4.50
2018-11-26T05:46:21.185Z,4.60
2018-11-26T05:48:49.486Z,4.60
2018-11-26T05:51:17.778Z,4.60
2018-11-26T05:53:48.068Z,4.60
2018-11-26T05:56:16.495Z,4.70
2018-11-26T05:58:46.325Z,4.70
2018-11-26T06:01:17.024Z,4.70
2018-11-26T06:03:45.402Z,4.70
2018-11-26T06:06:14.058Z,4.70
2018-11-26T06:08:42.763Z,4.70
2018-11-26T06:11:11.071Z,4.70
2018-11-26T06:13:39.444Z,4.70
2018-11-26T06:16:07.748Z,4.70
2018-11-26T06:18:36.138Z,4.70
2018-11-26T06:21:04.546Z,4.70
2018-11-26T06:23:33.029Z,4.70
2018-11-26T06:26:01.442Z,4.70
2018-11-26T06:28:29.729Z,4.70
2018-11-26T06:30:58.551Z,4.70
2018-11-26T06:33:26.955Z,4.70
2018-11-26T06:35:55.345Z,4.70
2018-11-26T06:38:23.651Z,4.70
2018-11-26T06:40:51.932Z,4.70
2018-11-26T06:43:20.236Z,4.70
2018-11-26T06:45:48.578Z,4.70
2018-11-26T06:48:16.859Z,4.80
2018-11-26T06:50:45.098Z,4.80
2018-11-26T06:53:14.339Z,4.80
2018-11-26T06:55:42.624Z,4.80
2018-11-26T06:58:10.899Z,4.80
2018-11-26T07:00:39.271Z,4.80
2018-11-26T07:03:07.557Z,4.80
2018-11-26T07:05:35.858Z,4.80
2018-11-26T07:08:04.131Z,4.80
2018-11-26T07:10:32.519Z,4.80
2018-11-26T07:13:00.847Z,4.80
2018-11-26T07:15:29.150Z,4.90
2018-11-26T07:17:57.430Z,4.90
2018-11-26T07:20:25.687Z,4.90
2018-11-26T07:22:54.087Z,4.90
2018-11-26T07:25:22.370Z,4.90
2018-11-26T07:27:54.506Z,4.90
2018-11-26T07:30:30.202Z,4.90
2018-11-26T07:33:01.274Z,4.90
2018-11-26T07:35:29.915Z,4.90
2018-11-26T07:37:58.239Z,4.90
2018-11-26T07:40:26.622Z,6.20
2018-11-26T07:43:01.300Z,4.90
2018-11-26T07:45:29.614Z,5.00
2018-11-26T07:47:57.982Z,5.00
2018-11-26T07:50:26.331Z,5.00
2018-11-26T07:52:54.742Z,5.00
2018-11-26T07:55:23.031Z,5.00
2018-11-26T07:57:51.291Z,5.00
2018-11-26T08:00:20.710Z,5.10
2018-11-26T08:02:49.499Z,5.00
2018-11-26T08:05:18.920Z,5.10
2018-11-26T08:07:47.213Z,5.10
2018-11-26T08:10:16.579Z,5.20
2018-11-26T08:12:45.366Z,5.20
2018-11-26T08:15:14.874Z,5.10
2018-11-26T08:17:43.262Z,5.20
2018-11-26T08:20:11.833Z,5.20
2018-11-26T08:22:40.165Z,5.20
2018-11-26T08:25:10.388Z,5.20
2018-11-26T08:27:38.936Z,5.20
2018-11-26T08:30:12.752Z,5.20
2018-11-26T08:32:41.111Z,5.20
2018-11-26T08:35:10.650Z,5.20
2018-11-26T08:37:43.139Z,5.20
2018-11-26T08:40:11.821Z,5.30
2018-11-26T08:42:40.884Z,5.20
2018-11-26T08:45:15.066Z,5.30
2018-11-26T08:47:43.462Z,5.30
2018-11-26T08:50:11.769Z,5.30
2018-11-26T08:52:40.078Z,5.30
2018-11-26T08:55:08.563Z,5.30
2018-11-26T08:57:36.856Z,5.30
2018-11-26T09:00:06.142Z,5.30
2018-11-26T09:02:38.644Z,5.30
2018-11-26T09:05:11.619Z,5.30
2018-11-26T09:07:39.886Z,5.30
2018-11-26T09:10:08.627Z,5.30
2018-11-26T09:12:37.208Z,5.40
2018-11-26T09:15:06.322Z,5.40
2018-11-26T09:17:34.634Z,5.40
2018-11-26T09:20:02.996Z,5.40
2018-11-26T09:22:31.342Z,5.40
2018-11-26T09:24:59.738Z,5.40
2018-11-26T09:27:28.031Z,5.50
2018-11-26T09:29:56.554Z,5.50
2018-11-26T09:32:24.840Z,5.50
2018-11-26T09:34:53.246Z,5.50
2018-11-26T09:37:21.474Z,5.60
2018-11-26T09:39:49.819Z,5.60
2018-11-26T09:42:18.169Z,5.60
2018-11-26T09:44:46.476Z,5.60
2018-11-26T09:47:19.562Z,5.60
2018-11-26T09:49:47.915Z,5.60
2018-11-26T09:52:16.225Z,5.60
2018-11-26T09:54:44.535Z,5.60
2018-11-26T09:57:13.265Z,5.60
2018-11-26T09:59:41.603Z,5.60
2018-11-26T10:02:09.968Z,5.60
2018-11-26T10:04:38.230Z,5.70
2018-11-26T10:07:06.908Z,5.70
2018-11-26T10:09:35.215Z,5.70
2018-11-26T10:12:03.486Z,5.70
2018-11-26T10:14:31.779Z,5.70
2018-11-26T10:17:00.114Z,5.70
2018-11-26T10:19:28.618Z,5.70
2018-11-26T10:21:56.710Z,5.80
2018-11-26T10:24:25.008Z,5.80
2018-11-26T10:26:53.318Z,5.80
2018-11-26T10:29:21.622Z,5.80
2018-11-26T10:31:50.034Z,6.30
2018-11-26T10:34:18.335Z,5.90
2018-11-26T10:36:46.613Z,6.00
2018-11-26T10:39:14.914Z,6.00
2018-11-26T10:41:43.162Z,6.00
2018-11-26T10:44:11.503Z,6.00
2018-11-26T10:46:40.382Z,6.00
2018-11-26T10:49:08.646Z,6.00
2018-11-26T10:51:37.004Z,6.10
2018-11-26T10:54:05.356Z,6.20
2018-11-26T10:56:33.651Z,6.20
2018-11-26T10:59:01.952Z,6.20
2018-11-26T11:01:35.608Z,6.20
2018-11-26T11:04:03.892Z,6.20
2018-11-26T11:06:32.233Z,6.20
2018-11-26T11:09:00.615Z,6.20
2018-11-26T11:11:28.903Z,6.20
2018-11-26T11:13:57.230Z,6.30
2018-11-26T11:16:25.862Z,6.40
2018-11-26T11:18:54.135Z,6.40
2018-11-26T11:21:22.438Z,6.30
2018-11-26T11:23:50.732Z,6.40
2018-11-26T11:26:19.122Z,6.40
2018-11-26T11:28:47.479Z,6.40
2018-11-26T11:31:15.780Z,6.40
2018-11-26T11:33:44.120Z,6.40
2018-11-26T11:36:12.395Z,6.40
2018-11-26T11:38:40.684Z,6.50
2018-11-26T11:41:08.979Z,6.40
2018-11-26T11:43:37.256Z,6.50
2018-11-26T11:46:06.412Z,6.50
2018-11-26T11:48:34.764Z,6.50
2018-11-26T11:51:03.082Z,6.50
2018-11-26T11:53:31.381Z,6.40
2018-11-26T11:55:59.756Z,6.40
2018-11-26T11:58:28.830Z,6.40
2018-11-26T12:00:57.137Z,6.40
2018-11-26T12:03:25.460Z,6.40
2018-11-26T12:05:53.761Z,6.40
2018-11-26T12:08:22.195Z,6.40
2018-11-26T12:10:50.580Z,6.30
2018-11-26T12:13:19.087Z,6.30
2018-11-26T12:15:52.248Z,6.30
2018-11-26T12:18:20.559Z,6.30
2018-11-26T12:20:48.860Z,6.20
2018-11-26T12:23:17.166Z,6.30
2018-11-26T12:25:45.562Z,6.30
2018-11-26T12:28:13.868Z,6.30
2018-11-26T12:30:44.747Z,6.30
2018-11-26T12:33:13.034Z,6.30
2018-11-26T12:35:41.398Z,6.30
2018-11-26T12:38:09.750Z,6.30
2018-11-26T12:40:38.088Z,6.30
2018-11-26T12:43:06.878Z,6.30
2018-11-26T12:45:35.392Z,6.30
2018-11-26T12:48:03.676Z,6.30
2018-11-26T12:50:31.994Z,6.20
2018-11-26T12:53:00.331Z,6.10
2018-11-26T12:55:28.704Z,6.10
2018-11-26T12:57:57.809Z,6.10
2018-11-26T13:00:27.046Z,6.10
2018-11-26T13:03:03.524Z,6.00
2018-11-26T13:05:31.854Z,6.00
2018-11-26T13:08:00.142Z,6.00
2018-11-26T13:10:28.524Z,6.00
2018-11-26T13:12:56.837Z,5.90
2018-11-26T13:15:26.410Z,5.90
2018-11-26T13:17:54.732Z,5.90
2018-11-26T13:20:25.592Z,5.90
2018-11-26T13:22:54.172Z,5.80
2018-11-26T13:25:24.492Z,5.80
2018-11-26T13:27:55.750Z,5.80
2018-11-26T13:30:31.100Z,5.80
2018-11-26T13:33:01.352Z,5.80
2018-11-26T13:35:29.609Z,5.80
2018-11-26T13:37:58.125Z,5.70
2018-11-26T13:40:26.270Z,5.70
2018-11-26T13:42:54.524Z,5.70
2018-11-26T13:45:25.991Z,5.60
2018-11-26T13:47:54.444Z,5.60
2018-11-26T13:50:26.652Z,5.60
2018-11-26T13:52:55.120Z,5.60
2018-11-26T13:55:25.084Z,5.60
2018-11-26T13:57:53.391Z,5.60
2018-11-26T14:00:21.699Z,5.50
2018-11-26T14:02:50.003Z,5.50
2018-11-26T14:05:18.835Z,5.40
2018-11-26T14:07:47.476Z,5.40
2018-11-26T14:10:22.727Z,5.40
2018-11-26T14:12:54.678Z,5.20
2018-11-26T14:15:22.712Z,5.30
2018-11-26T14:17:51.012Z,5.30
2018-11-26T14:20:19.295Z,5.30
2018-11-26T14:22:47.678Z,5.30
2018-11-26T14:25:16.870Z,5.30
2018-11-26T14:27:45.573Z,5.20
2018-11-26T14:30:16.191Z,6.00
2018-11-26T14:32:44.486Z,5.10
2018-11-26T14:35:12.803Z,5.20
2018-11-26T14:37:41.111Z,5.20
2018-11-26T14:40:11.851Z,5.20
2018-11-26T14:42:40.130Z,5.10
2018-11-26T14:45:10.343Z,5.10
2018-11-26T14:47:38.610Z,5.00
2018-11-26T14:50:11.960Z,5.00
2018-11-26T14:52:40.609Z,5.00
2018-11-26T14:55:12.320Z,4.90
2018-11-26T14:57:40.650Z,4.90
2018-11-26T15:00:13.248Z,4.80
2018-11-26T15:02:41.646Z,4.80
2018-11-26T15:05:09.980Z,4.80
2018-11-26T15:07:38.488Z,4.80
2018-11-26T15:10:12.584Z,4.80
2018-11-26T15:12:41.182Z,4.70
2018-11-26T15:15:18.525Z,4.70
2018-11-26T15:17:46.803Z,4.70
2018-11-26T15:20:18.284Z,4.70
2018-11-26T15:22:46.873Z,4.70
2018-11-26T15:25:16.398Z,4.60
2018-11-26T15:27:44.747Z,4.60
2018-11-26T15:30:16.751Z,4.60
2018-11-26T15:32:45.064Z,4.60
2018-11-26T15:35:15.146Z,4.50
2018-11-26T15:37:43.562Z,4.50
2018-11-26T15:40:12.808Z,4.50
2018-11-26T15:42:41.161Z,4.40
2018-11-26T15:45:17.781Z,4.30
2018-11-26T15:47:46.194Z,4.40
2018-11-26T15:50:14.511Z,4.30
2018-11-26T15:52:42.819Z,4.30
2018-11-26T15:55:13.243Z,4.30
2018-11-26T15:57:41.693Z,4.20
2018-11-26T16:00:16.755Z,4.20
2018-11-26T16:02:45.346Z,4.20
2018-11-26T16:05:15.115Z,4.20
2018-11-26T16:07:43.502Z,4.20
2018-11-26T16:10:12.936Z,4.20
2018-11-26T16:12:41.653Z,4.10
2018-11-26T16:15:13.383Z,4.10
2018-11-26T16:17:41.725Z,4.10
2018-11-26T16:20:15.368Z,4.20
2018-11-26T16:22:50.754Z,4.10
2018-11-26T16:25:20.491Z,4.10
2018-11-26T16:27:48.793Z,4.10
2018-11-26T16:30:17.914Z,4.10
2018-11-26T16:32:47.791Z,4.00
2018-11-26T16:35:22.238Z,4.00
2018-11-26T16:37:50.542Z,4.00
2018-11-26T16:40:18.905Z,4.00
2018-11-26T16:42:47.235Z,4.00
2018-11-26T16:45:18.564Z,4.00
2018-11-26T16:47:49.066Z,4.00
2018-11-26T16:50:18.288Z,3.90
2018-11-26T16:52:46.667Z,4.00
2018-11-26T16:55:15.590Z,4.00
2018-11-26T16:57:43.928Z,4.00
2018-11-26T17:00:18.316Z,4.00
2018-11-26T17:02:47.460Z,4.00
2018-11-26T17:05:20.119Z,3.90
2018-11-26T17:07:48.671Z,4.00
2018-11-26T17:10:16.999Z,3.90
2018-11-26T17:12:45.354Z,4.00
2018-11-26T17:15:14.738Z,4.00
2018-11-26T17:17:43.196Z,3.90
2018-11-26T17:20:12.483Z,3.90
2018-11-26T17:22:40.960Z,3.90
2018-11-26T17:25:12.229Z,3.90
2018-11-26T17:27:40.922Z,3.90
2018-11-26T17:30:12.674Z,3.80
2018-11-26T17:32:41.217Z,3.80
2018-11-26T17:35:10.871Z,3.80
2018-11-26T17:37:42.887Z,3.80
2018-11-26T17:40:09.533Z,3.90
2018-11-26T17:42:37.834Z,3.80
2018-11-26T17:45:08.241Z,3.80
2018-11-26T17:47:36.540Z,3.80
2018-11-26T17:50:21.176Z,3.80
2018-11-26T17:52:49.684Z,3.80
2018-11-26T17:55:17.968Z,3.80
2018-11-26T17:57:46.351Z,3.80
2018-11-26T18:00:19.101Z,3.80
2018-11-26T18:02:55.420Z,3.70
2018-11-26T18:05:26.083Z,3.70
2018-11-26T18:08:01.364Z,3.80
2018-11-26T18:10:29.659Z,3.70
2018-11-26T18:12:58.012Z,3.80
2018-11-26T18:15:26.385Z,3.80
2018-11-26T18:17:55.691Z,3.80
2018-11-26T18:20:24.212Z,3.80
2018-11-26T18:22:53.455Z,3.70
2018-11-26T18:25:22.439Z,3.70
2018-11-26T18:27:57.660Z,3.80
2018-11-26T18:30:30.494Z,3.80
2018-11-26T18:32:59.444Z,3.70
2018-11-26T18:35:27.771Z,3.80
2018-11-26T18:37:57.091Z,3.80
2018-11-26T18:40:25.601Z,3.80
2018-11-26T18:42:53.949Z,3.80
2018-11-26T18:45:22.448Z,3.80
2018-11-26T18:47:50.747Z,3.70
2018-11-26T18:50:20.798Z,3.80
2018-11-26T18:52:50.289Z,3.70
2018-11-26T18:55:21.044Z,3.70
2018-11-26T18:57:49.481Z,3.70
2018-11-26T19:00:22.999Z,3.70
2018-11-26T19:02:52.068Z,3.70
2018-11-26T19:05:20.520Z,3.70
2018-11-26T19:07:48.971Z,3.80
2018-11-26T19:10:20.251Z,3.70
2018-11-26T19:12:54.955Z,3.80
2018-11-26T19:15:26.136Z,3.70
2018-11-26T19:17:56.671Z,3.80
2018-11-26T19:20:25.026Z,3.80
2018-11-26T19:22:53.459Z,3.80
2018-11-26T19:25:21.827Z,3.80
2018-11-26T19:27:50.167Z,3.80
2018-11-26T19:30:22.975Z,3.80
2018-11-26T19:32:46.993Z,3.80
2018-11-26T19:35:15.748Z,3.80
2018-11-26T19:37:44.097Z,3.80
2018-11-26T19:40:14.568Z,3.80
2018-11-26T19:42:45.112Z,3.80
2018-11-26T19:45:16.167Z,3.80
2018-11-26T19:47:45.830Z,3.80
2018-11-26T19:50:15.369Z,3.80
2018-11-26T19:52:43.879Z,3.80
2018-11-26T19:55:14.689Z,3.80
2018-11-26T19:57:43.160Z,3.80
2018-11-26T20:00:16.970Z,3.80
2018-11-26T20:02:46.964Z,3.80
2018-11-26T20:05:23.479Z,3.80
2018-11-26T20:07:51.830Z,3.80
2018-11-26T20:10:20.265Z,3.80
2018-11-26T20:12:48.617Z,3.80
2018-11-26T20:15:17.558Z,3.80
2018-11-26T20:17:46.034Z,3.80
2018-11-26T20:20:19.464Z,3.80
2018-11-26T20:22:52.117Z,3.80
2018-11-26T20:25:20.528Z,3.80
2018-11-26T20:27:48.860Z,3.80
2018-11-26T20:30:17.289Z,3.80
2018-11-26T20:32:47.572Z,3.70
2018-11-26T20:35:15.999Z,3.80
2018-11-26T20:37:44.329Z,3.70
2018-11-26T20:40:13.940Z,3.80
2018-11-26T20:42:46.919Z,3.80
2018-11-26T20:45:16.699Z,3.70
2018-11-26T20:47:46.033Z,3.70
2018-11-26T20:50:18.817Z,3.80
2018-11-26T20:52:47.382Z,3.70
2018-11-26T20:55:17.920Z,3.10
2018-11-26T20:57:46.941Z,3.70
2018-11-26T21:00:17.540Z,3.80
2018-11-26T21:02:47.055Z,3.80
2018-11-26T21:05:16.677Z,3.80
2018-11-26T21:07:45.060Z,3.70
2018-11-26T21:10:14.389Z,3.80
2018-11-26T21:12:42.924Z,3.70
2018-11-26T21:15:13.470Z,3.70
2018-11-26T21:17:44.013Z,3.70
2018-11-26T21:20:17.919Z,3.70
2018-11-26T21:22:47.300Z,3.70
2018-11-26T21:25:16.519Z,3.70
2018-11-26T21:27:44.991Z,3.70
2018-11-26T21:30:15.543Z,3.70
2018-11-26T21:32:45.011Z,3.70
2018-11-26T21:35:14.561Z,3.70
2018-11-26T21:37:44.096Z,3.70
2018-11-26T21:40:20.048Z,3.70
2018-11-26T21:42:43.022Z,3.70
2018-11-26T21:45:14.017Z,3.70
2018-11-26T21:47:43.441Z,3.70
2018-11-26T21:50:12.797Z,3.70
2018-11-26T21:52:41.210Z,3.70
2018-11-26T21:55:14.358Z,3.70
2018-11-26T21:57:46.034Z,3.70
2018-11-26T22:00:22.749Z,3.70
2018-11-26T22:02:51.336Z,3.70
2018-11-26T22:05:19.662Z,3.70
2018-11-26T22:07:48.072Z,3.70
2018-11-26T22:10:18.325Z,3.70
2018-11-26T22:12:48.742Z,3.70
2018-11-26T22:15:17.105Z,3.70
2018-11-26T22:17:45.478Z,3.70
2018-11-26T22:20:24.648Z,3.70
2018-11-26T22:22:52.999Z,3.70
2018-11-26T22:25:22.344Z,3.70
2018-11-26T22:27:50.895Z,3.70
2018-11-26T22:30:21.316Z,3.70
2018-11-26T22:32:49.672Z,3.70
2018-11-26T22:35:17.963Z,3.70
2018-11-26T22:37:46.253Z,3.80
2018-11-26T22:40:19.320Z,3.70
2018-11-26T22:42:48.252Z,3.70
2018-11-26T22:48:10.297Z,3.70
2018-11-26T22:50:39.771Z,3.70
2018-11-26T22:53:08.746Z,3.70
2018-11-26T22:55:37.113Z,3.70
2018-11-26T22:58:06.947Z,3.60
2018-11-26T23:00:42.988Z,3.60
2018-11-26T23:03:13.911Z,3.70
2018-11-26T23:05:42.227Z,3.60
2018-11-26T23:08:10.524Z,3.60
2018-11-26T23:10:38.826Z,3.60
2018-11-26T23:13:07.975Z,3.60
2018-11-26T23:15:36.308Z,3.60
2018-11-26T23:18:04.853Z,3.60
2018-11-26T23:20:33.736Z,3.60
2018-11-26T23:23:03.532Z,3.60
2018-11-26T23:25:35.306Z,3.60
2018-11-26T23:28:03.613Z,3.50
2018-11-26T23:30:32.290Z,3.50
2018-11-26T23:33:01.909Z,3.50
2018-11-26T23:35:30.179Z,3.60
2018-11-26T23:37:58.448Z,4.80
2018-11-26T23:40:26.974Z,3.50
2018-11-26T23:42:55.355Z,3.50
2018-11-26T23:45:24.532Z,3.50
2018-11-26T23:47:52.844Z,3.50
2018-11-26T23:50:21.314Z,3.50
2018-11-26T23:52:49.599Z,3.50
2018-11-26T23:55:20.492Z,3.60
2018-11-26T23:57:48.887Z,3.60
